Time;durP1;ratioP1;P1;durP2;ratioP2;P2;SDS_P1;SDS_P2;PMS_P1;PMS_P2;Temp;Humidity;BMP_temperature;BMP_pressure;BME280_temperature;BME280_humidity;BME280_pressure;Samples;Min_cycle;Max_cycle;Signal;HPM_P1;HPM_P2
2023/08/18 00:04:42;;;;;;;9.10;8.20;;;;;;;-145.68;100.00;73223.97;10492328;28;20268;-80
2023/08/18 00:09:45;;;;;;;13.05;8.82;;;;;;;-145.68;100.00;73239.97;10492061;28;20195;-81
2023/08/18 00:14:59;;;;;;;10.35;8.38;;;;;;;-145.68;100.00;73207.97;10491092;28;20709;-81
2023/08/18 00:20:09;;;;;;;;;;;;;;;;;;;;;
2023/08/18 00:25:10;;;;;;;10.63;8.82;;;;;;;-145.68;100.00;73261.94;10490463;28;20231;-81
2023/08/18 00:30:11;;;;;;;12.52;8.77;;;;;;;-145.68;100.00;73275.94;10490259;28;20587;-80
2023/08/18 00:35:14;;;;;;;11.63;8.90;;;;;;;-145.68;100.00;73287.94;10489973;28;20241;-81
2023/08/18 00:40:17;;;;;;;12.80;8.93;;;;;;;-145.68;100.00;73287.94;10490217;28;20233;-81
2023/08/18 00:45:22;;;;;;;10.15;9.23;;;;;;;-145.68;100.00;73313.91;10491283;28;20318;-81
2023/08/18 00:50:24;;;;;;;13.60;10.52;;;;;;;-145.68;100.00;73339.91;10489722;28;20749;-81
2023/08/18 00:55:28;;;;;;;11.35;10.15;;;;;;;-145.68;100.00;73327.91;10489225;28;20175;-80
2023/08/18 01:00:33;;;;;;;10.80;9.27;;;;;;;-145.68;100.00;73313.91;10472596;28;20555;-81
2023/08/18 01:05:34;;;;;;;11.00;9.85;;;;;;;-145.68;100.00;73315.91;10472359;28;20226;-81
2023/08/18 01:10:49;;;;;;;9.60;8.70;;;;;;;-145.68;100.00;73295.94;10490804;28;20186;-80
2023/08/18 01:15:51;;;;;;;16.35;9.82;;;;;;;-145.68;100.00;73301.91;10472654;28;20290;-81
2023/08/18 01:20:53;;;;;;;11.68;10.52;;;;;;;-145.68;100.00;73305.91;10474634;28;20229;-80
2023/08/18 01:25:54;;;;;;;11.25;9.52;;;;;;;-145.68;100.00;73303.91;10478758;28;20235;-80
2023/08/18 01:30:55;;;;;;;12.45;10.05;;;;;;;-145.68;100.00;73305.91;10496247;28;20195;-80
2023/08/18 01:36:02;;;;;;;10.80;9.70;;;;;;;-145.68;100.00;73303.91;10479039;28;20603;-80
2023/08/18 01:41:05;;;;;;;10.25;9.25;;;;;;;-145.68;100.00;73301.91;10478352;28;20187;-81
2023/08/18 01:46:05;;;;;;;10.80;9.23;;;;;;;-145.68;100.00;73309.91;10496813;28;20231;-80
2023/08/18 01:51:08;;;;;;;11.43;9.85;;;;;;;-145.68;100.00;73315.91;10477967;28;20299;-80
2023/08/18 01:56:09;;;;;;;13.45;9.18;;;;;;;-145.68;100.00;73327.91;10455185;28;20846;-80
2023/08/18 02:01:09;;;;;;;12.50;10.57;;;;;;;-145.68;100.00;73325.91;10454088;28;20656;-80
2023/08/18 02:06:09;;;;;;;11.90;10.50;;;;;;;-145.68;100.00;73339.91;10454320;28;20235;-80
2023/08/18 02:11:10;;;;;;;13.00;11.50;;;;;;;-145.68;100.00;73351.88;10453721;28;20272;-80
2023/08/18 02:16:11;;;;;;;11.40;10.30;;;;;;;-145.68;100.00;73341.91;10453756;28;20558;-80
2023/08/18 02:21:14;;;;;;;11.75;10.50;;;;;;;-145.68;100.00;73347.88;10436486;28;20180;-80
2023/08/18 02:26:14;;;;;;;10.95;9.85;;;;;;;-145.68;100.00;73339.91;10453288;28;20310;-80
2023/08/18 02:31:17;;;;;;;11.95;10.55;;;;;;;-145.68;100.00;73351.88;10452405;28;20188;-80
2023/08/18 02:36:17;;;;;;;13.13;10.80;;;;;;;-145.68;100.00;73365.88;10452635;28;20204;-79
2023/08/18 02:41:19;;;;;;;11.50;10.30;;;;;;;-145.68;100.00;73371.88;10452943;28;20196;-79
2023/08/18 02:46:20;;;;;;;11.95;10.70;;;;;;;-145.68;100.00;73375.88;10452063;28;20227;-80
2023/08/18 02:51:20;;;;;;;12.20;10.77;;;;;;;-145.68;100.00;73397.84;10452753;28;20194;-80
2023/08/18 02:56:21;;;;;;;14.40;11.35;;;;;;;-145.68;100.00;73383.88;10453370;28;20191;-80
2023/08/18 03:01:21;;;;;;;12.27;10.15;;;;;;;-145.68;100.00;73397.84;10434826;28;20180;-81
2023/08/18 03:06:22;;;;;;;11.48;10.27;;;;;;;-145.68;100.00;73403.84;10410267;28;20220;-79
2023/08/18 03:11:23;;;;;;;13.25;11.32;;;;;;;-145.68;100.00;73433.84;10404549;28;20196;-80
2023/08/18 03:16:24;;;;;;;12.68;11.20;;;;;;;-145.68;100.00;73435.84;10402993;28;20191;-79
2023/08/18 03:21:24;;;;;;;15.35;11.48;;;;;;;-145.68;100.00;73451.81;10385452;28;20208;-80
2023/08/18 03:26:25;;;;;;;12.45;11.23;;;;;;;-145.68;100.00;73453.81;10402200;28;20239;-80
2023/08/18 03:31:25;;;;;;;12.75;10.65;;;;;;;-145.68;100.00;73461.81;10403822;28;20787;-80
2023/08/18 03:36:26;;;;;;;14.20;11.20;;;;;;;-145.68;100.00;73471.81;10403654;28;20185;-80
2023/08/18 03:41:27;;;;;;;15.52;10.95;;;;;;;-145.68;100.00;73469.81;10402463;28;20191;-80
2023/08/18 03:46:29;;;;;;;15.18;11.27;;;;;;;-145.68;100.00;73481.81;10402728;28;20228;-80
2023/08/18 03:51:33;;;;;;;13.07;11.77;;;;;;;-145.68;100.00;73481.81;10402333;28;20687;-80
2023/08/18 03:56:35;;;;;;;12.38;10.98;;;;;;;-145.68;100.00;73481.81;10402990;28;20189;-81
2023/08/18 04:01:36;;;;;;;13.18;11.27;;;;;;;-145.68;100.00;73481.81;10403271;28;20664;-80
2023/08/18 04:06:36;;;;;;;14.82;11.43;;;;;;;-145.68;100.00;73487.81;10407836;28;20229;-80
2023/08/18 04:11:37;;;;;;;13.35;11.80;;;;;;;-145.68;100.00;73487.81;10409701;28;20189;-81
2023/08/18 04:16:45;;;;;;;12.95;11.65;;;;;;;-145.68;100.00;73489.81;10409074;28;20523;-81
2023/08/18 04:21:47;;;;;;;14.43;12.52;;;;;;;-145.68;100.00;73505.78;10405983;28;20676;-81
2023/08/18 04:26:59;;;;;;;18.67;12.05;;;;;;;-145.68;100.00;73499.78;10405080;28;20212;-81
2023/08/18 04:32:04;;;;;;;22.33;12.65;;;;;;;-145.68;100.00;73505.78;10406091;28;20774;-81
2023/08/18 04:37:05;;;;;;;14.23;12.30;;;;;;;-145.68;100.00;73499.78;10407071;28;20279;-81
2023/08/18 04:42:10;;;;;;;13.82;11.98;;;;;;;-145.68;100.00;73495.78;10406029;28;20204;-81
2023/08/18 04:47:11;;;;;;;15.55;12.77;;;;;;;-145.68;100.00;73489.81;10407324;28;20228;-81
2023/08/18 04:52:16;;;;;;;13.43;11.43;;;;;;;-145.68;100.00;73467.81;10407111;28;20258;-80
2023/08/18 04:57:16;;;;;;;13.95;11.30;;;;;;;-145.68;100.00;73447.81;10410682;28;20180;-79
2023/08/18 05:02:17;;;;;;;16.25;10.02;;;;;;;-145.68;100.00;73431.84;10434793;28;20659;-79
2023/08/18 05:07:20;;;;;;;13.77;11.05;;;;;;;-145.68;100.00;73419.84;10439171;28;20262;-79
2023/08/18 05:12:22;;;;;;;12.80;11.20;;;;;;;-145.68;100.00;73407.84;10455245;28;20192;-78
2023/08/18 05:17:22;;;;;;;13.93;11.20;;;;;;;-145.68;100.00;73363.88;10456321;28;20199;-79
2023/08/18 05:22:23;;;;;;;12.60;10.55;;;;;;;-145.68;100.00;73335.91;10454509;28;20313;-79
2023/08/18 05:27:23;;;;;;;14.73;10.68;;;;;;;-145.68;100.00;73307.91;10455166;28;20258;-78
2023/08/18 05:32:25;;;;;;;11.30;10.20;;;;;;;-145.68;100.00;73281.94;10456331;28;20199;-79
2023/08/18 05:37:25;;;;;;;17.77;10.15;;;;;;;-145.68;100.00;73253.94;10455521;28;20618;-79
2023/08/18 05:42:28;;;;;;;10.95;9.52;;;;;;;-145.68;100.00;73207.97;10455615;28;20188;-79
2023/08/18 05:47:28;;;;;;;10.93;9.77;;;;;;;-145.68;100.00;73190.00;10454728;28;20212;-79
2023/08/18 05:52:29;;;;;;;13.88;9.65;;;;;;;-145.68;100.00;73172.00;10454302;28;20196;-79
2023/08/18 05:57:29;;;;;;;14.88;9.30;;;;;;;-145.68;100.00;73076.06;10454091;28;20180;-80
2023/08/18 06:02:29;;;;;;;9.15;8.25;;;;;;;-145.68;99.36;72956.16;10454197;28;20670;-79
2023/08/18 06:07:30;;;;;;;11.02;8.45;;;;;;;-145.68;83.79;72940.16;10453942;28;20208;-79
2023/08/18 06:12:30;;;;;;;11.20;7.28;;;;;;;-145.68;82.14;72816.25;10453423;28;20210;-80
2023/08/18 06:17:31;;;;;;;11.32;7.88;;;;;;;-145.68;73.86;72688.38;10452591;28;20184;-80
2023/08/18 06:22:31;;;;;;;7.30;6.60;;;;;;;-145.68;70.77;72700.34;10453969;28;20232;-80
2023/08/18 06:27:36;;;;;;;9.55;6.78;;;;;;;-145.68;67.72;72574.47;10454674;28;20230;-80
2023/08/18 06:32:37;;;;;;;8.43;6.03;;;;;;;-145.68;64.02;72500.53;10453457;28;20203;-80
2023/08/18 06:37:48;;;;;;;10.40;7.03;;;;;;;-145.68;61.48;72486.53;10451185;28;21017;-80
2023/08/18 06:42:53;;;;;;;6.80;6.10;;;;;;;-145.68;62.31;72426.59;10452890;28;20196;-80
2023/08/18 06:47:56;;;;;;;8.15;6.10;;;;;;;-145.68;59.78;72342.66;10453157;28;20274;-81
2023/08/18 06:52:57;;;;;;;6.65;5.25;;;;;;;-145.68;55.98;72186.81;10450212;28;20214;-81
2023/08/18 06:57:57;;;;;;;7.63;5.88;;;;;;;-145.68;53.47;72176.81;10494100;28;20187;-81
2023/08/18 07:03:00;;;;;;;6.60;5.97;;;;;;;-145.68;54.32;72218.78;10462345;28;20566;-79
2023/08/18 07:08:01;;;;;;;12.85;5.65;;;;;;;-145.68;53.60;72140.84;10493776;28;20218;-79
2023/08/18 07:13:03;;;;;;;8.23;6.25;;;;;;;-145.68;52.14;72096.88;10492914;28;20257;-80
2023/08/18 07:18:03;;;;;;;7.10;5.88;;;;;;;-145.68;50.73;72016.97;10463535;28;20195;-78
2023/08/18 07:23:04;;;;;;;11.27;6.40;;;;;;;-145.68;51.58;72036.94;10449265;28;20238;-79
2023/08/18 07:28:05;;;;;;;6.30;5.80;;;;;;;-145.68;53.64;72132.84;10449333;28;20215;-79
2023/08/18 07:33:05;;;;;;;7.15;6.13;;;;;;;-145.68;52.55;72102.88;10452091;28;20192;-79
2023/08/18 07:38:06;;;;;;;8.02;5.50;;;;;;;-145.68;50.91;71955.03;10425873;28;20548;-79
2023/08/18 07:43:06;;;;;;;9.90;6.55;;;;;;;-145.68;51.69;72032.94;10456425;28;20190;-79
2023/08/18 07:48:07;;;;;;;9.55;6.35;;;;;;;-145.68;51.51;72056.94;10465930;28;20588;-79
2023/08/18 07:53:07;;;;;;;9.35;6.47;;;;;;;-145.68;50.38;71963.03;10449769;28;20184;-79
2023/08/18 07:58:08;;;;;;;9.75;6.80;;;;;;;-145.68;48.62;71961.03;10450453;28;20184;-80
2023/08/18 08:03:08;;;;;;;6.28;5.60;;;;;;;-145.68;47.41;71777.22;10464140;28;20187;-80
2023/08/18 08:08:10;;;;;;;6.60;4.82;;;;;;;-145.68;46.57;71749.22;10451234;28;20227;-81
2023/08/18 08:13:11;;;;;;;5.80;5.05;;;;;;;-145.68;49.69;71973.00;10449114;28;20356;-80
2023/08/18 08:18:15;;;;;;;12.55;5.65;;;;;;;-145.68;47.26;71845.13;10449686;28;20236;-82
2023/08/18 08:23:16;;;;;;;6.30;5.53;;;;;;;-145.68;45.05;71761.22;10449562;28;20824;-79
2023/08/18 08:28:16;;;;;;;8.68;5.50;;;;;;;-145.68;45.50;71721.25;10448843;28;20266;-80
2023/08/18 08:33:19;;;;;;;5.90;5.10;;;;;;;-145.68;49.31;71891.09;10446593;28;20890;-80
2023/08/18 08:38:20;;;;;;;8.00;6.25;;;;;;;-145.68;49.24;71969.00;10448152;28;20282;-81
2023/08/18 08:43:21;;;;;;;6.82;5.88;;;;;;;-145.68;47.37;71889.09;10447427;28;20184;-79
2023/08/18 08:48:23;;;;;;;16.52;5.78;;;;;;;-145.68;47.52;71841.13;10446416;28;20215;-79
2023/08/18 08:53:36;;;;;;;7.15;6.00;;;;;;;-145.68;42.40;71617.38;10447241;28;20191;-81
2023/08/18 08:58:39;;;;;;;10.75;5.13;;;;;;;-145.68;43.45;71625.38;10430696;28;20194;-80
2023/08/18 09:03:40;;;;;;;7.00;5.50;;;;;;;-145.68;43.00;71617.38;10447964;28;20218;-81
2023/08/18 09:08:41;;;;;;;8.40;5.20;;;;;;;-145.68;41.69;71533.47;10446802;28;20253;-81
2023/08/18 09:13:42;;;;;;;6.40;5.47;;;;;;;-145.68;43.30;71563.44;10448828;28;20187;-80
2023/08/18 09:18:42;;;;;;;6.93;5.68;;;;;;;-145.68;41.01;71439.56;10448197;28;20186;-82
2023/08/18 09:23:43;;;;;;;8.05;5.07;;;;;;;-145.68;41.46;71429.59;10446957;28;20624;-82
2023/08/18 09:28:48;;;;;;;6.53;4.95;;;;;;;-145.68;42.55;71517.47;10444604;28;20709;-81
2023/08/18 09:33:50;;;;;;;7.13;5.28;;;;;;;-145.68;43.54;71535.47;10447309;28;20200;-82
2023/08/18 09:38:51;;;;;;;7.30;5.28;;;;;;;-145.68;41.34;71481.53;10447052;28;20260;-82
2023/08/18 09:43:53;;;;;;;9.85;5.15;;;;;;;-145.68;40.04;71453.56;10452044;28;20207;-81
2023/08/18 09:48:58;;;;;;;6.45;5.38;;;;;;;-145.68;40.68;71481.53;10436478;28;20239;-81
2023/08/18 09:53:59;;;;;;;12.20;5.90;;;;;;;-145.68;41.79;71569.44;10456097;28;20561;-82
2023/08/18 09:59:23;;;;;;;6.68;5.03;;;;;;;-145.68;39.83;71377.63;10453389;28;20275;-82
2023/08/18 10:04:25;;;;;;;11.77;6.07;;;;;;;-145.68;37.92;71239.81;10454222;28;20309;-82
2023/08/18 10:09:27;;;;;;;4.90;4.50;;;;;;;-145.68;38.61;71209.84;10454867;28;20206;-82
2023/08/18 10:14:33;;;;;;;9.55;4.90;;;;;;;-145.68;37.68;71221.81;10452814;28;20651;-82
2023/08/18 10:20:00;;;;;;;6.30;5.22;;;;;;;-145.68;38.82;71325.69;10436000;28;20245;-81
2023/08/18 10:25:12;;;;;;;6.30;5.68;;;;;;;-145.68;39.98;71351.66;10460892;28;20227;-81
2023/08/18 10:30:12;;;;;;;8.95;5.40;;;;;;;-145.68;41.64;71443.56;10453156;28;20191;-81
2023/08/18 10:35:24;;;;;;;8.10;5.17;;;;;;;-145.68;40.17;71357.66;10453065;28;20549;-83
2023/08/18 10:40:33;;;;;;;8.73;4.78;;;;;;;-145.68;39.24;71287.75;10434964;28;20192;-81
2023/08/18 10:45:34;;;;;;;7.60;5.85;;;;;;;-145.68;41.24;71465.53;10453186;28;20707;-82
2023/08/18 10:50:42;;;;;;;7.47;6.00;;;;;;;-145.68;40.96;71461.53;10434559;28;20198;-81
2023/08/18 10:55:43;;;;;;;7.13;5.03;;;;;;;-145.68;41.15;71465.53;10451216;28;20191;-81
2023/08/18 11:00:43;;;;;;;8.40;5.50;;;;;;;-145.68;41.91;71519.47;10461127;28;20186;-81
2023/08/18 11:05:45;;;;;;;6.13;5.25;;;;;;;-145.68;43.23;71585.41;10451992;28;20623;-81
2023/08/18 11:10:45;;;;;;;9.23;6.18;;;;;;;-145.68;42.83;71685.31;10451329;28;20188;-81
2023/08/18 11:15:50;;;;;;;10.35;6.00;;;;;;;-145.68;43.54;71589.41;10450103;28;20199;-82
2023/08/18 11:20:51;;;;;;;6.60;5.32;;;;;;;-145.68;41.32;71501.50;10450502;28;20196;-81
2023/08/18 11:25:52;;;;;;;7.63;5.90;;;;;;;-145.68;43.82;71737.25;10450488;28;20220;-81
2023/08/18 11:30:56;;;;;;;6.38;5.78;;;;;;;-145.68;45.53;71807.19;10450742;28;20183;-81
2023/08/18 11:35:58;;;;;;;11.52;6.28;;;;;;;-145.68;46.74;71873.09;10453692;28;20191;-85
2023/08/18 11:40:58;;;;;;;14.70;6.05;;;;;;;-145.68;46.67;71879.09;10416221;28;20624;-81
2023/08/18 11:45:59;;;;;;;7.57;4.97;;;;;;;-145.68;50.23;72248.75;10438950;28;20208;-81
2023/08/18 11:50:59;;;;;;;6.43;4.32;;;;;;;-145.68;52.45;72362.66;10449069;28;20554;-80
2023/08/18 11:56:00;;;;;;;6.50;4.43;;;;;;;-145.68;54.46;72460.56;10447731;28;20183;-80
2023/08/18 12:01:03;;;;;;;5.95;4.88;;;;;;;-145.68;56.62;72496.53;10449364;28;20505;-80
2023/08/18 12:06:04;;;;;;;8.20;5.20;;;;;;;-145.68;58.06;72520.50;10448154;28;20223;-80
2023/08/18 12:11:10;;;;;;;7.43;5.00;;;;;;;-145.68;59.50;72516.50;10449169;28;20188;-80
2023/08/18 12:16:11;;;;;;;5.45;4.93;;;;;;;-145.68;59.69;72536.50;10447182;28;20196;-81
2023/08/18 12:21:11;;;;;;;6.03;4.15;;;;;;;-145.68;58.50;72544.50;10447134;28;20682;-81
2023/08/18 12:26:14;;;;;;;4.65;4.13;;;;;;;-145.68;58.57;72538.50;10448871;28;20250;-80
2023/08/18 12:31:22;;;;;;;6.97;4.32;;;;;;;-145.68;59.27;72516.50;10449912;28;20664;-81
2023/08/18 12:36:23;;;;;;;6.50;4.30;;;;;;;-145.68;59.32;72504.53;10460722;28;20690;-81
2023/08/18 12:41:26;;;;;;;7.25;5.55;;;;;;;-145.68;61.46;72514.50;10458371;28;20275;-80
2023/08/18 12:46:34;;;;;;;6.18;4.95;;;;;;;-145.68;61.34;72496.53;10432359;28;20227;-80
2023/08/18 12:51:37;;;;;;;10.35;6.43;;;;;;;-145.68;61.77;72472.53;10447134;28;20551;-81
2023/08/18 12:56:38;;;;;;;7.47;4.97;;;;;;;-145.68;61.13;72448.56;10448366;28;20184;-81
2023/08/18 13:01:38;;;;;;;8.05;6.22;;;;;;;-145.68;59.79;72426.59;10449997;28;20187;-81
2023/08/18 13:06:44;;;;;;;7.40;5.70;;;;;;;-145.68;59.98;72424.59;10449221;28;20220;-79
2023/08/18 13:11:54;;;;;;;7.53;5.88;;;;;;;-145.68;61.70;72418.59;10434284;28;20207;-82
2023/08/18 13:17:02;;;;;;;8.65;5.57;;;;;;;-145.68;57.63;72328.69;10451242;28;20570;-81
2023/08/18 13:22:03;;;;;;;6.47;5.50;;;;;;;-145.68;56.27;72296.69;10453516;28;20263;-82
2023/08/18 13:27:03;;;;;;;7.20;5.90;;;;;;;-145.68;56.63;72314.69;10454661;28;20701;-80
2023/08/18 13:32:04;;;;;;;6.65;5.90;;;;;;;-145.68;56.62;72318.69;10455448;28;20265;-82
2023/08/18 13:37:18;;;;;;;8.75;5.97;;;;;;;-145.68;55.05;72260.72;10449091;28;20559;-81
2023/08/18 13:42:20;;;;;;;6.32;5.40;;;;;;;-145.68;54.59;72270.72;10454539;28;20721;-82
2023/08/18 13:47:30;;;;;;;;;;;;;;;;;;;;;
2023/08/18 13:52:38;;;;;;;8.95;6.28;;;;;;;-145.68;54.09;72216.78;10452888;28;20651;-81
2023/08/18 13:57:58;;;;;;;;;;;;;;;;;;;;;
2023/08/18 14:03:04;;;;;;;6.53;5.78;;;;;;;-145.68;52.29;72144.84;10451624;28;20667;-81
2023/08/18 14:08:11;;;;;;;6.97;5.55;;;;;;;-145.68;51.05;72110.88;10454580;28;20254;-82
2023/08/18 14:19:27;;;;;;;6.20;5.03;;;;;;;-145.68;47.50;71971.00;10295229;28;20752;-82
2023/08/18 14:24:28;;;;;;;5.60;4.55;;;;;;;-145.68;42.20;71739.25;10317427;28;20329;-81
2023/08/18 14:29:39;;;;;;;;;;;;;;;;;;;;;
2023/08/18 14:34:51;;;;;;;6.60;4.43;;;;;;;-145.68;41.80;71791.19;10351721;28;20231;-80
2023/08/18 14:40:50;;;;;;;5.68;4.55;;;;;;;-145.68;39.84;71651.34;10366041;28;20331;-81
2023/08/18 14:45:51;;;;;;;4.80;4.40;;;;;;;-145.68;38.96;71533.47;10353564;28;20235;-81
2023/08/18 14:51:04;;;;;;;6.82;5.05;;;;;;;-145.68;41.80;71839.16;10409536;28;20546;-80
2023/08/18 14:56:06;;;;;;;6.13;4.55;;;;;;;-145.68;44.04;71787.19;10447052;28;20226;-81
2023/08/18 15:01:12;;;;;;;5.55;4.90;;;;;;;-145.68;45.96;71881.09;10445819;28;20683;-81
2023/08/18 15:06:13;;;;;;;6.57;4.97;;;;;;;-145.68;46.94;71927.06;10434170;28;20216;-81
2023/08/18 15:11:14;;;;;;;6.45;5.30;;;;;;;-145.68;49.20;72022.97;10446692;28;20192;-82
2023/08/18 15:16:24;;;;;;;8.68;6.05;;;;;;;-145.68;50.00;72056.94;10418285;28;20198;-81
2023/08/18 15:21:24;;;;;;;6.63;4.88;;;;;;;-145.68;49.44;72052.94;10432763;28;20195;-82
2023/08/18 15:26:25;;;;;;;8.80;5.90;;;;;;;-145.68;50.86;72040.94;10409972;28;20228;-81
2023/08/18 15:31:26;;;;;;;5.78;5.18;;;;;;;-145.68;50.79;72032.94;10419205;28;20520;-81
2023/08/18 15:36:26;;;;;;;7.00;5.57;;;;;;;-145.68;50.81;72124.88;10451228;28;20188;-82
2023/08/18 15:41:38;;;;;;;7.50;6.15;;;;;;;-145.68;53.29;72180.81;10448241;28;20207;-82
2023/08/18 15:46:43;;;;;;;8.45;5.88;;;;;;;-145.68;52.31;72094.88;10432349;28;20220;-81
2023/08/18 15:51:43;;;;;;;13.60;6.32;;;;;;;-145.68;53.58;72114.88;10477571;28;20241;-79
2023/08/18 15:56:44;;;;;;;9.82;6.28;;;;;;;-145.68;54.49;72116.88;10453873;28;20187;-82
2023/08/18 16:01:44;;;;;;;9.02;6.47;;;;;;;-145.68;55.11;72146.84;10440641;28;20191;-79
2023/08/18 16:06:45;;;;;;;7.50;6.70;;;;;;;-145.68;58.43;72282.72;10447507;28;20219;-81
2023/08/18 16:11:46;;;;;;;10.88;7.43;;;;;;;-145.68;58.76;72228.75;10447493;28;20233;-81
2023/08/18 16:16:46;;;;;;;10.57;7.10;;;;;;;-145.68;61.40;72246.75;10414379;28;20717;-81
2023/08/18 16:21:47;;;;;;;7.70;6.55;;;;;;;-145.68;61.03;72186.81;10448448;28;20547;-80
2023/08/18 16:26:47;;;;;;;9.48;6.43;;;;;;;-145.68;58.96;72112.88;10450739;28;20556;-80
2023/08/18 16:31:48;;;;;;;10.60;6.80;;;;;;;-145.68;62.08;72152.84;10449347;28;20191;-80
2023/08/18 16:36:48;;;;;;;10.20;6.55;;;;;;;-145.68;55.19;71965.00;10450886;28;20209;-80
2023/08/18 16:41:49;;;;;;;9.68;6.82;;;;;;;-145.68;56.16;72032.94;10432283;28;20188;-82
2023/08/18 16:46:49;;;;;;;8.90;7.22;;;;;;;-145.68;56.60;72084.91;10450433;28;20224;-82
2023/08/18 16:51:50;;;;;;;8.57;7.53;;;;;;;-145.68;59.67;72148.84;10448225;28;20188;-81
2023/08/18 16:56:51;;;;;;;12.13;9.80;;;;;;;-145.68;60.63;72216.78;10430598;28;20214;-79
2023/08/18 17:01:51;;;;;;;14.68;8.55;;;;;;;-145.68;60.11;72184.81;10444409;28;20192;-82
2023/08/18 17:06:52;;;;;;;10.45;9.35;;;;;;;-145.68;59.91;72156.84;10429231;28;20223;-83
2023/08/18 17:11:52;;;;;;;10.52;8.13;;;;;;;-145.68;60.06;72192.78;10436566;28;20192;-80
2023/08/18 17:16:53;;;;;;;15.00;7.90;;;;;;;-145.68;59.04;72172.81;10435142;28;20241;-81
2023/08/18 17:21:53;;;;;;;14.25;8.48;;;;;;;-145.68;63.26;72294.72;10438091;28;20209;-77
2023/08/18 17:26:53;;;;;;;16.83;8.27;;;;;;;-145.68;62.99;72244.75;10415973;28;20263;-78
2023/08/18 17:31:54;;;;;;;10.88;7.50;;;;;;;-145.68;62.92;72254.75;10434769;28;20192;-77
2023/08/18 17:36:54;;;;;;;9.02;7.22;;;;;;;-145.68;63.00;72264.72;10423573;28;20197;-77
2023/08/18 17:41:55;;;;;;;8.68;6.80;;;;;;;-145.68;66.00;72294.72;10423214;28;20192;-76
2023/08/18 17:46:55;;;;;;;8.45;7.18;;;;;;;-145.68;66.81;72340.66;10419642;28;20271;-77
2023/08/18 17:51:56;;;;;;;10.38;7.88;;;;;;;-145.68;71.60;72404.59;10417891;28;20234;-77
2023/08/18 17:56:56;;;;;;;8.05;6.78;;;;;;;-145.68;73.25;72470.53;10427744;28;20204;-77
2023/08/18 18:01:56;;;;;;;10.07;7.65;;;;;;;-145.68;74.10;72482.53;10428271;28;20651;-78
2023/08/18 18:06:57;;;;;;;11.25;8.93;;;;;;;-145.68;82.05;72558.47;10427215;28;20223;-77
2023/08/18 18:11:57;;;;;;;13.07;8.32;;;;;;;-145.68;84.48;72588.44;10437009;28;20700;-77
2023/08/18 18:16:58;;;;;;;9.52;8.52;;;;;;;-145.68;89.89;72666.38;10436793;28;20196;-77
2023/08/18 18:21:58;;;;;;;11.75;9.20;;;;;;;-145.68;93.75;72668.38;10417571;28;20196;-77
2023/08/18 18:27:00;;;;;;;11.38;8.85;;;;;;;-145.68;96.73;72682.38;10428715;28;20244;-76
2023/08/18 18:38:27;;;;;;;13.20;9.77;;;;;;;-145.68;100.00;72752.31;10453111;28;20199;-81
2023/08/18 18:43:27;;;;;;;16.67;12.32;;;;;;;-145.68;100.00;72768.31;10453264;28;20224;-80
2023/08/18 18:48:27;;;;;;;15.30;11.05;;;;;;;-145.68;100.00;72804.28;10468858;28;20226;-80
2023/08/18 18:53:28;;;;;;;11.45;10.35;;;;;;;-145.68;100.00;72830.25;10462256;28;20301;-79
2023/08/18 18:58:28;;;;;;;15.65;11.55;;;;;;;-145.68;100.00;72856.22;10467174;28;20602;-78
2023/08/18 19:03:29;;;;;;;14.63;12.02;;;;;;;-145.68;100.00;72862.22;10472392;28;20469;-77
2023/08/18 19:08:29;;;;;;;13.82;11.80;;;;;;;-145.68;100.00;72884.22;10473063;28;20214;-77
2023/08/18 19:13:30;;;;;;;14.75;13.13;;;;;;;-145.68;100.00;72930.19;10450498;28;20596;-76
2023/08/18 19:18:30;;;;;;;17.65;15.85;;;;;;;-145.68;100.00;72944.16;10487769;28;20184;-76
2023/08/18 19:23:32;;;;;;;15.88;13.98;;;;;;;-145.68;100.00;72960.16;10491546;28;20226;-77
2023/08/18 19:28:35;;;;;;;21.98;19.92;;;;;;;-145.68;100.00;72990.13;10489856;28;20203;-76
2023/08/18 19:33:35;;;;;;;16.38;13.77;;;;;;;-145.68;100.00;73012.13;10464846;28;20304;-76
2023/08/18 19:38:36;;;;;;;16.65;15.00;;;;;;;-145.68;100.00;73032.09;10488787;28;20195;-76
2023/08/18 19:44:03;;;;;;;14.50;12.85;;;;;;;-145.68;100.00;73040.09;10488775;28;20187;-74
2023/08/18 19:49:03;;;;;;;17.15;12.13;;;;;;;-145.68;100.00;73048.09;10484541;28;20241;-77
2023/08/18 19:54:04;;;;;;;16.23;14.68;;;;;;;-145.68;100.00;73070.06;10487400;28;20539;-76
2023/08/18 19:59:04;;;;;;;15.90;12.80;;;;;;;-145.68;100.00;73076.06;10490147;28;20233;-76
2023/08/18 20:04:05;;;;;;;13.13;11.73;;;;;;;-145.68;100.00;73082.06;10489504;28;20222;-75
2023/08/18 20:09:06;;;;;;;18.52;12.60;;;;;;;-145.68;100.00;73108.06;10490056;28;20206;-75
2023/08/18 20:14:07;;;;;;;13.48;11.82;;;;;;;-145.68;100.00;73118.03;10463243;28;20206;-76
2023/08/18 20:19:07;;;;;;;13.93;11.88;;;;;;;-145.68;100.00;73122.03;10455457;28;20192;-75
2023/08/18 20:24:08;;;;;;;13.15;11.85;;;;;;;-145.68;100.00;73124.03;10450012;28;20308;-75
2023/08/18 20:29:09;;;;;;;13.20;11.00;;;;;;;-145.68;100.00;73130.03;10448407;28;20215;-76
2023/08/18 20:34:09;;;;;;;13.13;11.73;;;;;;;-145.68;100.00;73142.03;10451072;28;20211;-75
2023/08/18 20:39:09;;;;;;;16.00;10.77;;;;;;;-145.68;100.00;73150.03;10449155;28;20203;-76
2023/08/18 20:44:10;;;;;;;12.95;11.57;;;;;;;-145.68;100.00;73164.00;10450136;28;20192;-76
2023/08/18 20:49:10;;;;;;;15.60;11.90;;;;;;;-145.68;100.00;73180.00;10449202;28;20207;-76
2023/08/18 20:54:11;;;;;;;12.98;11.65;;;;;;;-145.68;100.00;73186.00;10449337;28;20220;-76
2023/08/18 20:59:11;;;;;;;15.88;11.98;;;;;;;-145.68;100.00;73196.00;10449258;28;20674;-76
2023/08/18 21:04:11;;;;;;;12.48;11.27;;;;;;;-145.68;100.00;73215.97;10449060;28;20228;-76
2023/08/18 21:09:12;;;;;;;12.75;11.00;;;;;;;-145.68;100.00;73211.97;10448827;28;20192;-75
2023/08/18 21:14:12;;;;;;;12.82;11.45;;;;;;;-145.68;100.00;73229.97;10449198;28;20219;-75
2023/08/18 21:19:12;;;;;;;13.02;10.77;;;;;;;-145.68;100.00;73231.97;10448511;28;20212;-76
2023/08/18 21:24:13;;;;;;;13.00;10.88;;;;;;;-145.68;100.00;73241.97;10448963;28;20326;-76
2023/08/18 21:29:13;;;;;;;12.18;10.98;;;;;;;-145.68;100.00;73241.97;10448486;28;20196;-76
2023/08/18 21:34:14;;;;;;;12.80;10.82;;;;;;;-145.68;100.00;73241.97;10448642;28;20223;-76
2023/08/18 21:39:14;;;;;;;14.35;11.43;;;;;;;-145.68;100.00;73259.94;10452426;28;20192;-75
2023/08/18 21:44:14;;;;;;;12.73;11.52;;;;;;;-145.68;100.00;73279.94;10457239;28;20183;-76
2023/08/18 21:49:15;;;;;;;13.15;11.85;;;;;;;-145.68;100.00;73299.91;10455807;28;20204;-76
2023/08/18 21:54:15;;;;;;;12.00;10.75;;;;;;;-145.68;100.00;73307.91;10455874;28;20218;-76
2023/08/18 21:59:16;;;;;;;14.77;11.43;;;;;;;-145.68;100.00;73309.91;10455856;28;20229;-76
2023/08/18 22:04:16;;;;;;;11.35;9.65;;;;;;;-145.68;100.00;73305.91;10455520;28;20191;-76
2023/08/18 22:09:17;;;;;;;14.85;11.40;;;;;;;-145.68;100.00;73313.91;10455298;28;20218;-76
2023/08/18 22:14:17;;;;;;;12.52;10.45;;;;;;;-145.68;100.00;73305.91;10455409;28;20216;-76
2023/08/18 22:19:17;;;;;;;12.35;11.15;;;;;;;-145.68;100.00;73305.91;10454307;28;20183;-75
2023/08/18 22:24:18;;;;;;;12.23;11.02;;;;;;;-145.68;100.00;73299.91;10454987;28;20230;-75
2023/08/18 22:29:18;;;;;;;12.55;11.25;;;;;;;-145.68;100.00;73307.91;10454575;28;20652;-75
2023/08/18 22:34:18;;;;;;;12.23;10.48;;;;;;;-145.68;100.00;73313.91;10454322;28;20207;-75
2023/08/18 22:39:20;;;;;;;14.02;10.00;;;;;;;-145.68;100.00;73331.91;10453894;28;20242;-75
2023/08/18 22:44:20;;;;;;;11.25;10.02;;;;;;;-145.68;100.00;73337.91;10454142;28;20365;-76
2023/08/18 22:49:21;;;;;;;12.75;10.57;;;;;;;-145.68;100.00;73343.88;10453739;28;20204;-76
2023/08/18 22:54:21;;;;;;;10.73;9.63;;;;;;;-145.68;100.00;73337.91;10453536;28;20246;-76
2023/08/18 22:59:21;;;;;;;13.93;10.90;;;;;;;-145.68;100.00;73351.88;10453517;28;20241;-76